Location Glendale, AZ, US

ob KWR6634 212000Z AUTO 22000G02KT OVC080 13/09 A3005 RMK SLPNO 

2020.01.21 2000 UTC
Wind from the SW (217 degrees) at Calm MPH ( KT) gusting to 2.0 MPH (2 KT)
Visibility    Mile(s)
Sky Conditions  overcast
Temperature 55.60 F (13 C)
Dew Point 48.86 F (9 C)
Relative Humidity 78%
Pressure   30.05 in. Hg (1018 hPa)
Rain  0.00 in.
Daily Rain  in.

Station Name  My Glendale Arizona Weather Station
Longitude, Latitude  -112.20133199999998, 33.58645
Elevation 1180
Station URL www.myglendalewxs.com
Software Type VWS V15.00